createdAt,value
2022-10-29T00:00:51.192Z,4.60
2022-10-29T00:03:20.360Z,4.30
2022-10-29T00:05:57.076Z,3.67
2022-10-29T00:08:25.262Z,2.80
2022-10-29T00:10:54.568Z,2.87
2022-10-29T00:13:22.670Z,3.37
2022-10-29T00:15:50.629Z,2.80
2022-10-29T00:18:18.580Z,3.00
2022-10-29T00:20:46.515Z,3.20
2022-10-29T00:23:14.480Z,2.90
2022-10-29T00:25:42.428Z,3.20
2022-10-29T00:28:11.701Z,3.93
2022-10-29T00:30:39.626Z,3.97
2022-10-29T00:33:07.606Z,2.57
2022-10-29T00:35:35.587Z,2.73
2022-10-29T00:38:03.563Z,3.10
2022-10-29T00:40:31.492Z,3.10
2022-10-29T00:43:15.097Z,3.30
2022-10-29T00:45:47.818Z,3.07
2022-10-29T00:48:15.848Z,3.50
2022-10-29T00:50:44.828Z,2.23
2022-10-29T00:53:13.296Z,3.70
2022-10-29T00:55:42.077Z,2.00
2022-10-29T00:58:12.453Z,2.60
2022-10-29T01:00:41.920Z,4.03
2022-10-29T01:03:09.965Z,2.53
2022-10-29T01:05:38.348Z,2.90
2022-10-29T01:08:07.101Z,2.80
2022-10-29T01:10:50.845Z,3.30
2022-10-29T01:13:34.353Z,2.30
2022-10-29T01:16:12.155Z,3.47
2022-10-29T01:18:48.435Z,4.10
2022-10-29T01:21:38.957Z,3.00
2022-10-29T01:24:36.676Z,2.87
2022-10-29T01:27:31.762Z,2.73
2022-10-29T01:30:13.896Z,4.27
2022-10-29T01:32:55.061Z,2.50
2022-10-29T01:35:31.251Z,2.33
2022-10-29T01:38:11.208Z,4.10
2022-10-29T01:40:47.858Z,3.87
2022-10-29T01:45:53.991Z,2.83
2022-10-29T01:48:33.123Z,2.83
2022-10-29T01:51:05.775Z,3.20
2022-10-29T01:53:37.318Z,2.10
2022-10-29T01:56:05.842Z,3.40
2022-10-29T01:58:35.210Z,3.03
2022-10-29T02:01:13.877Z,2.60
2022-10-29T02:03:53.151Z,2.80
2022-10-29T02:06:33.757Z,3.10
2022-10-29T02:09:10.079Z,2.70
2022-10-29T02:11:46.285Z,2.40
2022-10-29T02:14:20.031Z,2.53
2022-10-29T02:16:49.091Z,3.37
2022-10-29T02:19:18.407Z,4.70
2022-10-29T02:21:46.334Z,3.70
2022-10-29T02:24:14.364Z,2.90
2022-10-29T02:26:42.328Z,2.87
2022-10-29T02:29:10.326Z,2.73
2022-10-29T02:31:38.243Z,2.17
2022-10-29T02:34:06.171Z,2.70
2022-10-29T02:36:35.638Z,2.63
2022-10-29T02:39:03.576Z,2.70
2022-10-29T02:41:31.531Z,2.20
2022-10-29T02:43:59.518Z,3.70
2022-10-29T02:46:27.493Z,3.07
2022-10-29T02:48:55.427Z,2.87
2022-10-29T02:51:23.371Z,2.70
2022-10-29T02:53:52.693Z,3.63
2022-10-29T02:56:20.632Z,2.40
2022-10-29T02:58:48.601Z,2.57
2022-10-29T03:01:16.593Z,2.83
2022-10-29T03:03:44.589Z,2.90
2022-10-29T03:06:17.313Z,3.10
2022-10-29T03:08:46.793Z,2.90
2022-10-29T03:11:17.316Z,3.20
2022-10-29T03:13:46.644Z,2.87
2022-10-29T03:16:18.067Z,2.73
2022-10-29T03:18:46.924Z,2.43
2022-10-29T03:21:15.572Z,4.43
2022-10-29T03:23:44.436Z,3.50
2022-10-29T03:26:12.657Z,2.80
2022-10-29T03:31:18.167Z,2.57
2022-10-29T03:33:47.426Z,3.40
2022-10-29T03:36:16.714Z,3.07
2022-10-29T03:38:45.710Z,2.90
2022-10-29T03:41:14.793Z,3.37
2022-10-29T03:43:45.302Z,2.87
2022-10-29T03:46:14.528Z,2.37
2022-10-29T03:48:43.648Z,2.80
2022-10-29T03:51:12.682Z,2.20
2022-10-29T03:53:41.367Z,3.13
2022-10-29T03:56:11.907Z,2.50
2022-10-29T03:58:40.805Z,2.90
2022-10-29T04:01:11.995Z,2.70
2022-10-29T04:03:42.481Z,3.53
2022-10-29T04:06:14.277Z,3.40
2022-10-29T04:08:43.923Z,2.47
2022-10-29T04:11:13.674Z,4.20
2022-10-29T04:13:43.139Z,3.03
2022-10-29T04:16:13.915Z,2.43
2022-10-29T04:18:43.127Z,3.80
2022-10-29T04:29:39.742Z,3.17
2022-10-29T04:32:10.546Z,2.93
2022-10-29T04:34:39.879Z,3.47
2022-10-29T04:37:08.099Z,3.13
2022-10-29T04:39:39.169Z,3.83
2022-10-29T04:42:10.676Z,3.27
2022-10-29T04:44:39.956Z,3.37
2022-10-29T04:47:10.490Z,2.33
2022-10-29T04:49:39.499Z,3.30
2022-10-29T04:52:08.471Z,3.50
2022-10-29T04:54:37.723Z,2.43
2022-10-29T04:57:08.303Z,2.60
2022-10-29T04:59:38.151Z,2.73
2022-10-29T05:02:07.491Z,2.43
2022-10-29T05:04:39.752Z,3.00
2022-10-29T05:07:07.993Z,4.87
2022-10-29T05:09:37.389Z,3.60
2022-10-29T05:12:05.891Z,3.90
2022-10-29T05:14:33.828Z,3.40
2022-10-29T05:17:02.167Z,3.50
2022-10-29T05:19:30.228Z,2.97
2022-10-29T05:21:59.560Z,3.50
2022-10-29T05:24:27.479Z,4.30
2022-10-29T05:26:55.437Z,4.57
2022-10-29T05:29:23.401Z,3.13
2022-10-29T05:31:54.309Z,4.50
2022-10-29T05:34:22.520Z,2.60
2022-10-29T05:36:50.688Z,3.50
2022-10-29T05:39:19.985Z,2.93
2022-10-29T05:41:48.209Z,4.00
2022-10-29T05:44:16.120Z,2.93
2022-10-29T05:46:44.095Z,4.50
2022-10-29T05:49:13.556Z,2.50
2022-10-29T05:51:41.473Z,2.87
2022-10-29T05:54:09.410Z,4.07
2022-10-29T05:56:38.843Z,2.23
2022-10-29T05:59:06.797Z,3.60
2022-10-29T06:01:34.873Z,3.10
2022-10-29T06:04:02.932Z,3.80
2022-10-29T06:06:31.165Z,4.00
2022-10-29T06:08:59.496Z,3.78
2022-10-29T06:11:27.444Z,4.23
2022-10-29T06:13:57.962Z,2.97
2022-10-29T06:16:25.895Z,2.93
2022-10-29T06:18:53.851Z,3.93
2022-10-29T06:21:21.799Z,4.13
2022-10-29T06:23:50.693Z,3.90
2022-10-29T06:26:18.642Z,3.10
2022-10-29T06:28:46.592Z,4.03
2022-10-29T06:31:15.885Z,3.77
2022-10-29T06:33:43.831Z,3.60
2022-10-29T06:36:11.791Z,3.77
2022-10-29T06:38:39.736Z,3.80
2022-10-29T06:41:09.562Z,4.83
2022-10-29T06:43:37.532Z,3.03
2022-10-29T06:46:05.755Z,4.50
2022-10-29T06:48:35.052Z,5.17
2022-10-29T06:51:02.976Z,3.73
2022-10-29T06:53:30.933Z,2.73
2022-10-29T06:56:00.528Z,3.20
2022-10-29T06:58:28.484Z,4.10
2022-10-29T07:03:29.360Z,4.50
2022-10-29T07:05:59.187Z,3.87
2022-10-29T07:08:28.917Z,4.20
2022-10-29T07:10:57.232Z,3.63
2022-10-29T07:13:25.227Z,5.00
2022-10-29T07:15:53.229Z,4.53
2022-10-29T07:18:21.183Z,5.50
2022-10-29T07:20:49.158Z,3.57
2022-10-29T07:23:18.502Z,4.37
2022-10-29T07:25:46.688Z,5.03
2022-10-29T07:28:16.538Z,4.33
2022-10-29T07:30:45.708Z,5.10
2022-10-29T07:33:14.602Z,5.30
2022-10-29T07:35:44.693Z,6.90
2022-10-29T07:38:13.728Z,4.43
2022-10-29T07:40:49.618Z,4.50
2022-10-29T07:43:18.367Z,4.50
2022-10-29T07:45:49.802Z,3.90
2022-10-29T07:48:18.535Z,6.03
2022-10-29T07:50:47.022Z,4.67
2022-10-29T07:53:15.276Z,4.30
2022-10-29T07:55:45.453Z,5.20
2022-10-29T07:58:13.983Z,4.10
2022-10-29T08:00:42.686Z,3.27
2022-10-29T08:03:12.591Z,4.27
2022-10-29T08:05:42.791Z,3.70
2022-10-29T08:08:11.168Z,3.70
2022-10-29T08:10:39.143Z,4.87
2022-10-29T08:13:08.740Z,4.97
2022-10-29T08:15:37.128Z,4.07
2022-10-29T08:18:12.198Z,3.63
2022-10-29T08:20:40.486Z,5.10
2022-10-29T08:23:08.719Z,3.40
2022-10-29T08:25:41.198Z,3.87
2022-10-29T08:28:12.266Z,4.20
2022-10-29T08:30:40.881Z,3.73
2022-10-29T08:33:10.715Z,3.30
2022-10-29T08:35:38.712Z,3.80
2022-10-29T08:38:06.663Z,3.50
2022-10-29T08:40:44.347Z,3.40
2022-10-29T08:43:37.523Z,4.80
2022-10-29T08:46:05.716Z,3.67
2022-10-29T08:48:40.099Z,3.33
2022-10-29T08:51:15.509Z,2.90
2022-10-29T08:53:54.122Z,3.30
2022-10-29T08:56:35.565Z,3.10
2022-10-29T08:59:10.198Z,2.73
2022-10-29T09:01:38.809Z,3.00
2022-10-29T09:04:24.509Z,2.33
2022-10-29T09:07:13.774Z,3.00
2022-10-29T09:09:46.874Z,2.30
2022-10-29T09:12:30.277Z,2.77
2022-10-29T09:15:31.531Z,2.70
2022-10-29T09:18:14.865Z,2.80
2022-10-29T09:20:53.342Z,3.17
2022-10-29T09:23:31.381Z,2.57
2022-10-29T09:26:18.326Z,1.90
2022-10-29T09:29:14.845Z,2.30
2022-10-29T09:31:46.724Z,2.17
2022-10-29T09:34:19.034Z,1.53
2022-10-29T09:36:48.629Z,2.60
2022-10-29T09:39:24.599Z,2.00
2022-10-29T09:41:54.755Z,2.63
2022-10-29T09:44:27.113Z,2.07
2022-10-29T09:47:09.665Z,2.20
2022-10-29T09:49:50.004Z,2.90
2022-10-29T09:52:20.464Z,2.30
2022-10-29T09:54:50.687Z,4.30
2022-10-29T09:57:22.745Z,4.00
2022-10-29T09:59:54.741Z,2.23
2022-10-29T10:02:33.422Z,3.63
2022-10-29T10:05:08.039Z,1.70
2022-10-29T10:07:36.026Z,2.07
2022-10-29T10:10:06.119Z,2.13
2022-10-29T10:12:46.761Z,2.50
2022-10-29T10:15:24.704Z,2.60
2022-10-29T10:18:02.163Z,2.33
2022-10-29T10:20:34.441Z,2.70
2022-10-29T10:23:02.551Z,1.90
2022-10-29T10:25:36.254Z,2.20
2022-10-29T10:28:21.256Z,1.90
2022-10-29T10:31:09.023Z,2.20
2022-10-29T10:33:48.784Z,2.23
2022-10-29T10:36:17.288Z,2.90
2022-10-29T10:38:48.277Z,2.40
2022-10-29T10:41:22.434Z,1.83
2022-10-29T10:43:50.574Z,2.20
2022-10-29T10:46:27.297Z,2.27
2022-10-29T10:49:01.811Z,2.60
2022-10-29T10:51:31.733Z,2.20
2022-10-29T10:54:02.556Z,2.13
2022-10-29T10:56:31.016Z,1.90
2022-10-29T10:59:06.583Z,2.60
2022-10-29T11:01:39.537Z,2.30
2022-10-29T11:04:16.150Z,2.10
2022-10-29T11:06:49.406Z,2.73
2022-10-29T11:09:25.360Z,2.33
2022-10-29T11:11:59.714Z,2.03
2022-10-29T11:14:31.499Z,1.63
2022-10-29T11:17:02.905Z,2.47
2022-10-29T11:19:39.530Z,1.93
2022-10-29T11:22:18.351Z,1.97
2022-10-29T11:24:52.536Z,2.80
2022-10-29T11:27:32.490Z,2.00
2022-10-29T11:30:07.226Z,3.20
2022-10-29T11:32:47.671Z,2.70
2022-10-29T11:35:23.050Z,2.50
2022-10-29T11:37:58.800Z,2.30
2022-10-29T11:40:37.088Z,2.00
2022-10-29T11:43:10.623Z,1.90
2022-10-29T11:45:47.919Z,2.57
2022-10-29T11:51:05.795Z,1.93
2022-10-29T11:53:52.456Z,1.80
2022-10-29T11:56:27.103Z,1.90
2022-10-29T11:59:02.566Z,1.60
2022-10-29T12:01:38.908Z,1.57
2022-10-29T12:04:24.030Z,1.87
2022-10-29T12:07:06.423Z,1.77
2022-10-29T12:10:09.582Z,1.47
2022-10-29T12:12:49.860Z,2.07
2022-10-29T12:15:24.617Z,1.57
2022-10-29T12:18:04.928Z,2.73
2022-10-29T12:20:41.318Z,1.93
2022-10-29T12:23:25.294Z,1.80
2022-10-29T12:26:02.563Z,2.37
2022-10-29T12:28:42.808Z,2.20
2022-10-29T12:31:24.339Z,3.03
2022-10-29T12:33:59.346Z,2.20
2022-10-29T12:36:35.215Z,2.30
2022-10-29T12:39:06.781Z,2.37
2022-10-29T12:41:39.918Z,1.97
2022-10-29T12:44:15.184Z,1.70
2022-10-29T12:46:50.089Z,2.73
2022-10-29T12:49:24.152Z,1.80
2022-10-29T12:54:36.919Z,2.00
2022-10-29T12:57:06.622Z,2.83
2022-10-29T12:59:37.185Z,1.70
2022-10-29T13:02:27.034Z,1.50
2022-10-29T13:05:16.205Z,2.60
2022-10-29T13:08:12.640Z,1.93
2022-10-29T13:10:53.875Z,1.80
2022-10-29T13:13:39.643Z,2.67
2022-10-29T13:16:16.094Z,1.90
2022-10-29T13:19:11.417Z,2.00
2022-10-29T13:22:02.169Z,1.83
2022-10-29T13:24:30.763Z,1.93
2022-10-29T13:27:03.127Z,2.70
2022-10-29T13:29:48.266Z,2.03
2022-10-29T13:32:36.035Z,2.33
2022-10-29T13:35:06.648Z,2.50
2022-10-29T13:37:50.600Z,2.50
2022-10-29T13:41:01.327Z,2.30
2022-10-29T13:43:32.673Z,1.97
2022-10-29T13:46:34.427Z,2.43
2022-10-29T13:49:05.768Z,2.00
2022-10-29T13:51:39.925Z,3.00
2022-10-29T13:54:16.293Z,2.03
2022-10-29T13:56:49.361Z,2.10
2022-10-29T13:59:30.030Z,2.93
2022-10-29T14:02:06.535Z,2.60
2022-10-29T14:04:40.095Z,2.30
2022-10-29T14:07:17.715Z,2.33
2022-10-29T14:09:50.189Z,2.50
2022-10-29T14:12:23.062Z,2.13
2022-10-29T14:14:58.960Z,2.43
2022-10-29T14:17:26.908Z,2.90
2022-10-29T14:19:54.861Z,2.60
2022-10-29T14:22:33.440Z,3.37
2022-10-29T14:25:02.888Z,3.13
2022-10-29T14:27:31.113Z,5.40
2022-10-29T14:30:15.291Z,3.00
2022-10-29T14:32:45.328Z,2.90
2022-10-29T14:35:17.109Z,2.30
2022-10-29T14:37:46.432Z,2.47
2022-10-29T14:40:21.045Z,2.47
2022-10-29T14:42:54.460Z,2.10
2022-10-29T14:45:28.334Z,2.27
2022-10-29T14:47:58.276Z,2.53
2022-10-29T14:50:28.274Z,2.70
2022-10-29T14:52:58.085Z,2.83
2022-10-29T14:55:29.069Z,2.00
2022-10-29T14:58:03.766Z,3.23
2022-10-29T15:00:36.969Z,2.97
2022-10-29T15:03:07.146Z,4.03
2022-10-29T15:05:37.127Z,3.00
2022-10-29T15:08:07.482Z,2.97
2022-10-29T15:10:46.644Z,2.97
2022-10-29T15:13:30.415Z,2.40
2022-10-29T15:16:03.018Z,2.70
2022-10-29T15:18:33.237Z,2.83
2022-10-29T15:21:01.773Z,2.87
2022-10-29T15:23:34.071Z,4.17
2022-10-29T15:26:04.511Z,8.45
2022-10-29T15:28:34.396Z,12.20
2022-10-29T15:31:05.072Z,11.00
2022-10-29T15:33:33.312Z,8.90
2022-10-29T15:36:03.349Z,8.70
2022-10-29T15:39:04.034Z,6.63
2022-10-29T15:41:37.488Z,4.67
2022-10-29T15:44:35.186Z,6.00
2022-10-29T15:47:21.926Z,7.00
2022-10-29T15:49:49.894Z,5.87
2022-10-29T15:52:19.940Z,6.23
2022-10-29T15:54:48.589Z,5.37
2022-10-29T15:57:17.848Z,5.20
2022-10-29T15:59:45.793Z,5.83
2022-10-29T16:02:18.311Z,5.47
2022-10-29T16:04:46.426Z,5.20
2022-10-29T16:07:14.990Z,9.30
2022-10-29T16:09:49.057Z,13.97
2022-10-29T16:12:17.015Z,10.90
2022-10-29T16:14:45.070Z,4.90
2022-10-29T16:17:19.011Z,7.50
2022-10-29T16:19:46.962Z,7.10
2022-10-29T16:22:17.518Z,7.90
2022-10-29T16:24:45.483Z,10.07
2022-10-29T16:27:15.723Z,8.20
2022-10-29T16:29:43.988Z,8.53
2022-10-29T16:32:15.656Z,9.10
2022-10-29T16:34:45.358Z,8.90
2022-10-29T16:37:14.688Z,10.27
2022-10-29T16:39:42.726Z,9.57
2022-10-29T16:42:25.267Z,8.23
2022-10-29T16:44:53.209Z,6.70
2022-10-29T16:47:21.156Z,4.60
2022-10-29T16:49:50.507Z,4.60
2022-10-29T16:52:22.348Z,4.83
2022-10-29T16:54:51.993Z,5.43
2022-10-29T16:57:20.248Z,4.40
2022-10-29T16:59:48.200Z,4.87
2022-10-29T17:02:16.201Z,4.50
2022-10-29T17:04:44.197Z,3.93
2022-10-29T17:07:13.504Z,3.57
2022-10-29T17:09:41.476Z,3.90
2022-10-29T17:12:09.428Z,4.30
2022-10-29T17:14:37.358Z,3.33
2022-10-29T17:17:05.614Z,3.63
2022-10-29T17:19:33.588Z,4.30
2022-10-29T17:22:04.118Z,4.00
2022-10-29T17:24:33.445Z,3.00
2022-10-29T17:27:01.678Z,4.40
2022-10-29T17:29:35.221Z,4.53
2022-10-29T17:32:04.901Z,3.90
2022-10-29T17:34:33.111Z,3.20
2022-10-29T17:37:01.376Z,3.63
2022-10-29T17:39:29.442Z,3.77
2022-10-29T17:41:58.744Z,3.53
2022-10-29T17:44:27.542Z,2.87
2022-10-29T17:46:55.848Z,2.80
2022-10-29T17:49:23.859Z,4.00
2022-10-29T17:51:51.776Z,2.90
2022-10-29T17:54:21.303Z,3.47
2022-10-29T17:56:49.310Z,3.60
2022-10-29T17:59:18.641Z,2.50
2022-10-29T18:01:46.749Z,3.37
2022-10-29T18:04:14.914Z,3.03
2022-10-29T18:06:42.925Z,2.90
2022-10-29T18:09:11.017Z,4.13
2022-10-29T18:11:38.968Z,3.27
2022-10-29T18:14:06.888Z,3.83
2022-10-29T18:16:36.201Z,3.60
2022-10-29T18:19:04.166Z,3.93
2022-10-29T18:21:32.519Z,4.53
2022-10-29T18:24:00.854Z,3.20
2022-10-29T18:26:30.658Z,3.63
2022-10-29T18:29:00.084Z,4.00
2022-10-29T18:31:30.843Z,3.20
2022-10-29T18:34:01.652Z,3.97
2022-10-29T18:36:29.600Z,3.10
2022-10-29T18:38:59.596Z,2.90
2022-10-29T18:41:27.669Z,3.73
2022-10-29T18:43:56.918Z,4.87
2022-10-29T18:46:24.855Z,4.00
2022-10-29T18:48:53.143Z,3.27
2022-10-29T18:51:24.304Z,3.83
2022-10-29T18:53:52.929Z,4.70
2022-10-29T18:56:23.240Z,4.20
2022-10-29T18:58:51.345Z,2.60
2022-10-29T19:01:22.505Z,3.33
2022-10-29T19:03:51.888Z,3.70
2022-10-29T19:06:22.627Z,3.37
2022-10-29T19:08:50.923Z,3.70
2022-10-29T19:11:20.415Z,3.93
2022-10-29T19:13:51.365Z,4.20
2022-10-29T19:16:19.913Z,4.87
2022-10-29T19:18:48.605Z,4.60
2022-10-29T19:21:18.523Z,9.90
2022-10-29T19:23:48.039Z,13.27
2022-10-29T19:26:17.483Z,15.73
2022-10-29T19:28:46.355Z,10.80
2022-10-29T19:31:16.001Z,7.40
2022-10-29T19:33:48.043Z,10.30
2022-10-29T19:36:16.213Z,9.73
2022-10-29T19:38:44.652Z,10.67
2022-10-29T19:41:14.467Z,8.70
2022-10-29T19:43:42.403Z,11.00
2022-10-29T19:46:13.082Z,8.70
2022-10-29T19:48:41.761Z,7.80
2022-10-29T19:51:10.937Z,8.23
2022-10-29T19:53:39.848Z,7.53
2022-10-29T19:56:11.504Z,7.40
2022-10-29T19:58:40.921Z,5.93
2022-10-29T20:01:13.005Z,6.13
2022-10-29T20:03:43.326Z,4.80
2022-10-29T20:06:12.251Z,4.53
2022-10-29T20:08:40.390Z,4.57
2022-10-29T20:11:08.752Z,4.57
2022-10-29T20:13:36.784Z,4.77
2022-10-29T20:16:10.347Z,5.17
2022-10-29T20:18:39.171Z,4.80
2022-10-29T20:21:08.096Z,6.80
2022-10-29T20:23:36.585Z,5.90
2022-10-29T20:26:04.910Z,4.70
2022-10-29T20:28:32.890Z,4.50
2022-10-29T20:31:29.697Z,3.77
2022-10-29T20:34:00.225Z,3.73
2022-10-29T20:36:30.831Z,2.93
2022-10-29T20:38:59.155Z,4.23
2022-10-29T20:41:27.765Z,4.17
2022-10-29T20:43:59.220Z,3.50
2022-10-29T20:46:28.798Z,4.10
2022-10-29T20:48:56.828Z,4.07
2022-10-29T20:51:25.175Z,3.63
2022-10-29T20:53:53.593Z,3.53
2022-10-29T20:56:23.725Z,4.30
2022-10-29T20:58:52.037Z,4.77
2022-10-29T21:01:21.843Z,3.87
2022-10-29T21:03:51.949Z,3.83
2022-10-29T21:06:20.283Z,5.00
2022-10-29T21:08:49.174Z,4.63
2022-10-29T21:11:18.273Z,3.73
2022-10-29T21:13:46.819Z,4.77
2022-10-29T21:16:17.885Z,6.10
2022-10-29T21:18:48.792Z,3.70
2022-10-29T21:21:18.269Z,4.30
2022-10-29T21:23:46.662Z,3.80
2022-10-29T21:26:16.563Z,3.77
2022-10-29T21:28:44.957Z,4.17
2022-10-29T21:31:12.960Z,3.80
2022-10-29T21:33:41.203Z,4.30
2022-10-29T21:36:11.110Z,3.37
2022-10-29T21:38:40.454Z,3.60
2022-10-29T21:41:08.400Z,3.33
2022-10-29T21:43:36.614Z,4.40
2022-10-29T21:46:04.638Z,4.17
2022-10-29T21:48:32.623Z,4.70
2022-10-29T21:51:02.814Z,3.50
2022-10-29T21:53:30.913Z,3.50
2022-10-29T21:56:01.500Z,4.40
2022-10-29T21:58:29.829Z,5.03
2022-10-29T22:01:05.417Z,5.10
2022-10-29T22:03:34.786Z,4.73
2022-10-29T22:06:06.886Z,5.73
2022-10-29T22:08:34.956Z,4.97
2022-10-29T22:11:05.085Z,5.37
2022-10-29T22:13:34.238Z,5.13
2022-10-29T22:16:02.551Z,4.70
2022-10-29T22:18:31.289Z,4.20
2022-10-29T22:21:07.960Z,4.20
2022-10-29T22:23:37.895Z,3.33
2022-10-29T22:26:07.371Z,3.13
2022-10-29T22:28:35.282Z,3.17
2022-10-29T22:31:04.552Z,3.27
2022-10-29T22:33:33.132Z,3.00
2022-10-29T22:36:10.612Z,3.33
2022-10-29T22:38:38.753Z,2.70
2022-10-29T22:41:09.766Z,2.83
2022-10-29T22:43:38.419Z,4.23
2022-10-29T22:46:07.778Z,4.50
2022-10-29T22:48:35.997Z,3.03
2022-10-29T22:51:05.826Z,4.40
2022-10-29T22:53:34.271Z,2.63
2022-10-29T22:56:03.332Z,3.63
2022-10-29T22:58:32.922Z,3.20
2022-10-29T23:01:05.522Z,3.90
2022-10-29T23:03:33.930Z,2.60
2022-10-29T23:06:04.082Z,3.10
2022-10-29T23:08:32.423Z,2.90
2022-10-29T23:11:04.378Z,4.47
2022-10-29T23:13:33.671Z,4.57
2022-10-29T23:16:01.914Z,4.73
2022-10-29T23:18:29.881Z,5.80
2022-10-29T23:21:01.802Z,3.93
2022-10-29T23:23:30.263Z,3.90
2022-10-29T23:26:01.513Z,6.60
2022-10-29T23:28:29.999Z,4.20
2022-10-29T23:31:00.582Z,3.93
2022-10-29T23:33:29.124Z,4.63
2022-10-29T23:35:57.119Z,5.23
2022-10-29T23:38:25.027Z,3.80
2022-10-29T23:40:52.986Z,4.40
2022-10-29T23:43:20.924Z,3.37
2022-10-29T23:45:48.882Z,4.27
2022-10-29T23:48:18.354Z,4.60
2022-10-29T23:50:46.650Z,5.47
2022-10-29T23:53:14.854Z,5.63
2022-10-29T23:55:43.630Z,4.40
2022-10-29T23:58:12.065Z,2.17
